Time;durP1;ratioP1;P1;durP2;ratioP2;P2;SDS_P1;SDS_P2;PMS_P1;PMS_P2;Temp;Humidity;BMP_temperature;BMP_pressure;BME280_temperature;BME280_humidity;BME280_pressure;Samples;Min_cycle;Max_cycle;Signal;HPM_P1;HPM_P2
2021/07/03 00:00:09;;;;;;;13.13;8.80;;;21.20;46.10;;;;;;5005623;28;20968;-87
2021/07/03 00:02:36;;;;;;;11.47;7.73;;;21.20;45.60;;;;;;5003058;28;20853;-87
2021/07/03 00:05:06;;;;;;;17.10;8.87;;;21.20;46.50;;;;;;5002613;28;20447;-87
2021/07/03 00:07:37;;;;;;;20.53;9.00;;;21.30;46.10;;;;;;5001534;28;20451;-87
2021/07/03 00:10:06;;;;;;;12.43;7.70;;;21.40;45.80;;;;;;5001051;28;20459;-87
2021/07/03 00:12:34;;;;;;;15.57;9.33;;;21.40;45.80;;;;;;5002410;28;20487;-88
2021/07/03 00:15:02;;;;;;;12.20;8.03;;;21.40;45.80;;;;;;5001809;28;20435;-87
2021/07/03 00:17:35;;;;;;;12.43;7.70;;;21.40;45.80;;;;;;5001494;28;20936;-88
2021/07/03 00:20:02;;;;;;;10.97;7.93;;;21.20;45.60;;;;;;4997455;28;20458;-87
2021/07/03 00:22:33;;;;;;;14.03;9.10;;;21.00;46.50;;;;;;5002323;28;20634;-87
2021/07/03 00:25:08;;;;;;;19.40;10.30;;;21.20;45.60;;;;;;5001781;28;20886;-87
2021/07/03 00:27:35;;;;;;;15.80;9.40;;;20.80;45.30;;;;;;5002066;28;20474;-88
2021/07/03 00:30:03;;;;;;;16.77;11.07;;;20.60;45.20;;;;;;5002224;28;20956;-87
2021/07/03 00:32:45;;;;;;;14.90;9.20;;;20.50;45.90;;;;;;5004341;28;20463;-86
2021/07/03 00:35:18;;;;;;;20.30;9.93;;;20.30;47.30;;;;;;5005502;28;20827;-87
2021/07/03 00:37:47;;;;;;;24.63;8.80;;;20.30;48.00;;;;;;5008559;28;20458;-87
2021/07/03 00:40:19;;;;;;;18.17;11.23;;;20.60;47.70;;;;;;5012822;28;20530;-87
2021/07/03 00:42:46;;;;;;;12.37;9.40;;;20.60;46.60;;;;;;5003750;28;20462;-86
2021/07/03 00:45:13;;;;;;;16.20;9.43;;;20.40;47.00;;;;;;5002333;28;20506;-86
2021/07/03 00:47:40;;;;;;;19.20;10.20;;;20.30;47.00;;;;;;4997130;28;20482;-87
2021/07/03 00:50:10;;;;;;;15.67;10.50;;;20.10;47.30;;;;;;4998801;28;20808;-86
2021/07/03 00:52:37;;;;;;;14.87;10.50;;;19.90;47.60;;;;;;4999883;28;20473;-86
2021/07/03 00:55:07;;;;;;;18.00;10.20;;;19.70;48.30;;;;;;4997152;28;20615;-86
2021/07/03 00:57:34;;;;;;;21.30;10.67;;;19.30;49.20;;;;;;4998088;28;20447;-86
2021/07/03 01:00:01;;;;;;;16.90;10.67;;;18.80;50.20;;;;;;4997389;28;20495;-87
2021/07/03 01:02:28;;;;;;;18.10;10.70;;;18.70;50.50;;;;;;4997980;28;20843;-87
2021/07/03 01:04:55;;;;;;;16.10;10.80;;;18.90;50.20;;;;;;5002409;28;20434;-87
2021/07/03 01:07:22;;;;;;;24.57;10.80;;;19.10;50.70;;;;;;4996853;28;20490;-86
2021/07/03 01:09:49;;;;;;;15.90;10.30;;;19.10;50.60;;;;;;4998606;28;20475;-87
2021/07/03 01:12:21;;;;;;;14.67;9.97;;;18.90;50.70;;;;;;5001843;28;20489;-87
2021/07/03 01:14:50;;;;;;;14.70;10.10;;;18.90;50.20;;;;;;5002209;28;20446;-87
2021/07/03 01:17:24;;;;;;;34.00;10.20;;;19.10;50.70;;;;;;5005857;28;20940;-87
2021/07/03 01:19:51;;;;;;;15.30;9.30;;;19.20;49.60;;;;;;5016818;28;20404;-88
2021/07/03 01:22:19;;;;;;;15.47;10.43;;;19.50;49.50;;;;;;5000136;28;20553;-86
2021/07/03 01:24:48;;;;;;;15.20;9.53;;;19.60;48.80;;;;;;5009332;28;20443;-87
2021/07/03 01:27:15;;;;;;;24.40;10.10;;;19.30;49.20;;;;;;5012151;28;20479;-87
2021/07/03 01:29:43;;;;;;;15.47;9.87;;;19.20;49.30;;;;;;5016256;28;20455;-87
2021/07/03 01:32:11;;;;;;;15.70;9.27;;;19.00;50.50;;;;;;5015934;28;20428;-87
2021/07/03 01:34:39;;;;;;;16.50;10.13;;;18.80;50.50;;;;;;5016959;28;20408;-87
2021/07/03 01:37:07;;;;;;;19.60;11.23;;;18.70;50.50;;;;;;5017170;28;20435;-87
2021/07/03 01:39:35;;;;;;;12.90;9.93;;;18.80;50.00;;;;;;5016856;28;20450;-87
2021/07/03 01:42:03;;;;;;;16.47;10.07;;;18.90;50.30;;;;;;5015842;28;20454;-87
2021/07/03 01:44:30;;;;;;;19.20;10.03;;;19.00;50.70;;;;;;5015657;28;20459;-87
2021/07/03 01:46:59;;;;;;;13.07;8.90;;;19.10;49.50;;;;;;5002171;28;20482;-87
2021/07/03 01:49:27;;;;;;;15.23;10.00;;;19.30;48.80;;;;;;4999510;28;20486;-87
2021/07/03 01:51:55;;;;;;;12.57;9.93;;;18.90;48.80;;;;;;4998104;28;20450;-87
2021/07/03 01:54:23;;;;;;;13.07;9.77;;;18.50;50.30;;;;;;4997734;28;20501;-87
2021/07/03 01:57:00;;;;;;;19.80;9.03;;;18.20;50.80;;;;;;4998564;28;20482;-87
2021/07/03 01:59:28;;;;;;;15.50;9.53;;;18.10;53.40;;;;;;5008965;28;20466;-87
2021/07/03 02:01:56;;;;;;;14.77;9.47;;;18.30;52.00;;;;;;5009034;28;20933;-87
2021/07/03 02:04:28;;;;;;;12.37;9.20;;;18.30;52.20;;;;;;4999454;28;20953;-87
2021/07/03 02:06:56;;;;;;;19.20;9.70;;;18.30;52.20;;;;;;4998541;28;20817;-87
2021/07/03 02:09:27;;;;;;;17.50;10.37;;;17.90;52.80;;;;;;4996961;28;20506;-87
2021/07/03 02:11:55;;;;;;;19.83;10.47;;;17.80;52.80;;;;;;4996436;28;20471;-87
2021/07/03 02:14:22;;;;;;;22.93;10.67;;;17.60;53.30;;;;;;4996588;28;20957;-87
2021/07/03 02:16:49;;;;;;;15.67;10.40;;;17.60;54.10;;;;;;4996867;28;20962;-87
2021/07/03 02:19:16;;;;;;;15.10;9.43;;;17.90;53.50;;;;;;4997298;28;20941;-87
2021/07/03 02:21:43;;;;;;;17.17;9.50;;;18.30;53.40;;;;;;4996208;28;20534;-87
2021/07/03 02:24:10;;;;;;;13.50;9.40;;;18.60;51.30;;;;;;4995689;28;20534;-87
2021/07/03 02:26:37;;;;;;;17.47;10.33;;;18.20;52.50;;;;;;4999135;28;20483;-86
2021/07/03 02:29:06;;;;;;;17.13;11.13;;;18.00;53.40;;;;;;5007282;28;20501;-86
2021/07/03 02:31:33;;;;;;;12.70;9.30;;;18.10;52.50;;;;;;5006798;28;20455;-86
2021/07/03 02:34:00;;;;;;;17.97;10.53;;;17.90;52.80;;;;;;5006133;28;20471;-86
2021/07/03 02:36:27;;;;;;;18.83;11.80;;;17.80;53.60;;;;;;5002850;28;20452;-87
2021/07/03 02:38:54;;;;;;;16.03;9.87;;;17.90;52.30;;;;;;4997955;28;20450;-86
2021/07/03 02:41:23;;;;;;;13.10;9.40;;;18.10;52.20;;;;;;4996754;28;20494;-87
2021/07/03 02:43:50;;;;;;;19.30;11.03;;;18.30;52.50;;;;;;5000689;28;20479;-86
2021/07/03 02:46:18;;;;;;;13.87;10.00;;;18.30;51.20;;;;;;5001703;28;20522;-86
2021/07/03 02:48:45;;;;;;;13.50;8.83;;;18.40;51.50;;;;;;5001994;28;20518;-87
2021/07/03 02:51:12;;;;;;;14.50;9.33;;;18.50;52.20;;;;;;5002083;28;20447;-87
2021/07/03 02:53:39;;;;;;;21.83;11.00;;;18.80;51.90;;;;;;5003428;28;20454;-87
2021/07/03 02:56:07;;;;;;;20.27;11.60;;;18.60;49.50;;;;;;5000948;28;20497;-86
2021/07/03 02:58:33;;;;;;;16.60;10.50;;;18.40;50.80;;;;;;5002142;28;20466;-87
2021/07/03 03:01:00;;;;;;;16.30;10.20;;;18.50;51.40;;;;;;5001426;28;20447;-87
2021/07/03 03:03:29;;;;;;;16.53;10.20;;;18.50;51.20;;;;;;5005708;28;20470;-87
2021/07/03 03:05:56;;;;;;;18.17;10.50;;;18.50;51.10;;;;;;5002293;28;20441;-87
2021/07/03 03:08:23;;;;;;;28.03;9.40;;;18.20;51.40;;;;;;5005982;28;20470;-87
2021/07/03 03:10:50;;;;;;;21.83;10.33;;;18.00;52.90;;;;;;5013915;28;20462;-87
2021/07/03 03:13:17;;;;;;;13.30;9.87;;;17.90;51.40;;;;;;5013532;28;20537;-87
2021/07/03 03:15:44;;;;;;;15.33;9.53;;;17.80;53.00;;;;;;5011583;28;20423;-87
2021/07/03 03:18:11;;;;;;;12.80;9.23;;;18.00;52.80;;;;;;4998919;28;20783;-87
2021/07/03 03:20:39;;;;;;;16.07;10.70;;;18.20;51.50;;;;;;4998538;28;20845;-87
2021/07/03 03:23:06;;;;;;;13.63;9.33;;;18.20;51.10;;;;;;4997955;28;20463;-87
2021/07/03 03:25:33;;;;;;;18.00;10.43;;;18.70;52.10;;;;;;4998163;28;20826;-87
2021/07/03 03:28:00;;;;;;;14.60;9.40;;;19.10;49.40;;;;;;4998271;28;20513;-87
2021/07/03 03:30:27;;;;;;;15.43;10.07;;;19.30;49.30;;;;;;4998485;28;20443;-87
2021/07/03 03:32:54;;;;;;;17.40;8.60;;;19.50;49.90;;;;;;4998477;28;20501;-87
2021/07/03 03:35:24;;;;;;;14.63;9.87;;;19.30;49.70;;;;;;4998648;28;20438;-87
2021/07/03 03:37:52;;;;;;;14.30;9.10;;;19.50;48.90;;;;;;4998080;28;20531;-87
2021/07/03 03:40:20;;;;;;;17.80;9.17;;;19.70;49.50;;;;;;4998367;28;20502;-87
2021/07/03 03:42:47;;;;;;;12.47;9.40;;;19.70;48.70;;;;;;4998294;28;20545;-86
2021/07/03 03:45:15;;;;;;;10.60;8.27;;;19.90;48.60;;;;;;4997605;28;20458;-86
2021/07/03 03:47:42;;;;;;;16.37;10.23;;;19.90;48.00;;;;;;4997880;28;20482;-87
2021/07/03 03:50:10;;;;;;;18.13;9.90;;;19.70;47.70;;;;;;4997610;28;20517;-87
2021/07/03 03:52:38;;;;;;;14.87;9.17;;;19.50;47.00;;;;;;4998048;28;20478;-87
2021/07/03 03:55:09;;;;;;;12.07;8.80;;;19.20;47.50;;;;;;4997570;28;20485;-87
2021/07/03 03:57:36;;;;;;;12.03;9.50;;;19.00;49.00;;;;;;4997330;28;20439;-87
2021/07/03 04:00:06;;;;;;;32.03;10.43;;;18.80;49.30;;;;;;4997704;28;20459;-87
2021/07/03 04:02:33;;;;;;;16.53;9.13;;;18.60;50.10;;;;;;4998027;28;20529;-87
2021/07/03 04:05:00;;;;;;;13.63;9.87;;;18.30;50.10;;;;;;4997584;28;20459;-87
2021/07/03 04:07:27;;;;;;;16.60;9.00;;;18.40;50.20;;;;;;4997461;28;20538;-86
2021/07/03 04:09:54;;;;;;;13.43;9.50;;;18.50;51.80;;;;;;5003309;28;20511;-86
2021/07/03 04:12:26;;;;;;;17.50;8.67;;;18.80;49.80;;;;;;5008911;28;20471;-87
2021/07/03 04:14:53;;;;;;;14.27;9.83;;;18.60;49.90;;;;;;4997325;28;20455;-87
2021/07/03 04:17:20;;;;;;;13.03;8.07;;;19.30;48.30;;;;;;4997515;28;20478;-87
2021/07/03 04:19:47;;;;;;;29.63;9.50;;;19.60;48.80;;;;;;4997150;28;20490;-87
2021/07/03 04:22:14;;;;;;;14.87;8.67;;;19.70;46.80;;;;;;4996917;28;20517;-87
2021/07/03 04:24:41;;;;;;;19.93;8.80;;;19.30;47.00;;;;;;4997948;28;20461;-87
2021/07/03 04:27:08;;;;;;;16.77;8.80;;;18.80;48.80;;;;;;4996841;28;20537;-87
2021/07/03 04:29:37;;;;;;;16.00;9.70;;;18.40;49.30;;;;;;4996950;28;20501;-87
2021/07/03 04:32:04;;;;;;;12.37;8.77;;;18.50;49.20;;;;;;4996829;28;20887;-87
2021/07/03 04:34:32;;;;;;;13.30;10.00;;;18.70;50.20;;;;;;4995949;28;20455;-87
2021/07/03 04:36:59;;;;;;;10.07;7.80;;;19.10;48.90;;;;;;4996451;28;20506;-87
2021/07/03 04:39:27;;;;;;;11.67;8.77;;;19.00;50.30;;;;;;4995967;28;21008;-87
2021/07/03 04:41:54;;;;;;;16.70;9.90;;;18.90;48.70;;;;;;4996288;28;20885;-87
2021/07/03 04:44:22;;;;;;;10.30;7.90;;;18.80;49.10;;;;;;4996404;28;20549;-87
2021/07/03 04:46:51;;;;;;;21.57;8.87;;;19.00;50.80;;;;;;4996445;28;20447;-87
2021/07/03 04:49:18;;;;;;;13.07;8.10;;;19.10;49.10;;;;;;4996316;28;20482;-87
2021/07/03 04:51:45;;;;;;;15.10;8.10;;;18.90;48.90;;;;;;4996183;28;20471;-87
2021/07/03 04:54:12;;;;;;;29.83;9.17;;;19.00;49.50;;;;;;4996000;28;20521;-87
2021/07/03 04:56:39;;;;;;;10.73;7.60;;;18.70;48.60;;;;;;4996498;28;20455;-87
2021/07/03 04:59:06;;;;;;;11.97;8.47;;;18.50;50.30;;;;;;4996211;28;20443;-87
2021/07/03 05:01:35;;;;;;;18.77;10.33;;;18.80;50.60;;;;;;4996201;28;20800;-87
2021/07/03 05:04:03;;;;;;;14.07;9.90;;;19.10;48.50;;;;;;4995904;28;20518;-87
2021/07/03 05:06:30;;;;;;;16.87;9.23;;;19.00;48.50;;;;;;4995457;28;20459;-87
2021/07/03 05:08:57;;;;;;;21.63;7.53;;;18.90;48.70;;;;;;4995506;28;21023;-87
2021/07/03 05:11:24;;;;;;;19.83;9.20;;;19.10;49.50;;;;;;4995702;28;20444;-87
2021/07/03 05:13:51;;;;;;;12.00;8.77;;;19.30;47.80;;;;;;4995750;28;20924;-87
2021/07/03 05:16:18;;;;;;;14.10;9.23;;;19.10;48.80;;;;;;4996028;28;20575;-87
2021/07/03 05:18:45;;;;;;;11.70;8.57;;;19.20;48.30;;;;;;4995733;28;20454;-87
2021/07/03 05:21:13;;;;;;;12.70;8.90;;;19.80;47.40;;;;;;4995723;28;20474;-89
2021/07/03 05:23:40;;;;;;;13.40;8.17;;;20.00;47.30;;;;;;4995777;28;21051;-89
2021/07/03 05:26:07;;;;;;;19.63;10.17;;;20.20;47.90;;;;;;4995641;28;20435;-87
2021/07/03 05:28:35;;;;;;;15.47;8.57;;;20.30;46.90;;;;;;4995826;28;20845;-88
2021/07/03 05:31:04;;;;;;;20.23;8.23;;;20.60;46.50;;;;;;4995689;28;20864;-88
2021/07/03 05:33:33;;;;;;;11.87;8.00;;;20.60;46.20;;;;;;4995789;28;20541;-88
2021/07/03 05:36:01;;;;;;;14.37;8.47;;;20.60;46.10;;;;;;4995566;28;20436;-88
2021/07/03 05:38:30;;;;;;;10.67;7.37;;;20.20;46.70;;;;;;4995376;28;20486;-88
2021/07/03 05:41:00;;;;;;;13.77;7.77;;;20.30;48.90;;;;;;4995659;28;20872;-88
2021/07/03 05:43:28;;;;;;;17.87;9.30;;;20.40;47.70;;;;;;4994842;28;20464;-87
2021/07/03 05:45:55;;;;;;;13.47;7.57;;;20.60;46.30;;;;;;5010370;28;20463;-87
2021/07/03 05:48:24;;;;;;;12.40;8.10;;;21.90;49.50;;;;;;4995322;28;20482;-88
2021/07/03 05:50:53;;;;;;;11.77;8.13;;;23.60;44.10;;;;;;4995425;28;20454;-88
2021/07/03 05:53:20;;;;;;;74.67;35.60;;;25.40;42.00;;;;;;4995899;28;20474;-89
2021/07/03 05:55:49;;;;;;;19.03;8.13;;;26.60;36.20;;;;;;4996580;28;20857;-89
2021/07/03 05:58:16;;;;;;;17.60;7.90;;;27.30;36.90;;;;;;4995368;28;20494;-89
2021/07/03 06:00:43;;;;;;;11.97;8.03;;;27.80;34.60;;;;;;4995367;28;20482;-89
2021/07/03 06:03:10;;;;;;;12.80;8.13;;;28.10;34.40;;;;;;4995216;28;20902;-89
2021/07/03 06:05:37;;;;;;;12.50;8.00;;;28.50;32.00;;;;;;4995167;28;20459;-88
2021/07/03 06:08:04;;;;;;;14.13;7.30;;;28.60;33.10;;;;;;4995254;28;20503;-89
2021/07/03 06:10:31;;;;;;;12.20;6.93;;;29.30;32.20;;;;;;4995537;28;20813;-88
2021/07/03 06:12:59;;;;;;;15.43;7.40;;;29.80;30.70;;;;;;4994557;28;20586;-89
2021/07/03 06:15:26;;;;;;;13.33;7.90;;;30.40;29.80;;;;;;4995333;28;20455;-89
2021/07/03 06:17:53;;;;;;;12.93;8.50;;;31.30;28.80;;;;;;4994500;28;20462;-89
2021/07/03 06:20:22;;;;;;;10.33;6.70;;;31.70;28.60;;;;;;4994846;28;20983;-89
2021/07/03 06:22:49;;;;;;;12.43;6.97;;;31.90;27.90;;;;;;4994587;28;21027;-89
2021/07/03 06:25:16;;;;;;;17.23;7.40;;;32.40;26.00;;;;;;4994958;28;20534;-89
2021/07/03 06:27:43;;;;;;;10.73;7.13;;;32.60;26.50;;;;;;4996872;28;20525;-90
2021/07/03 06:30:13;;;;;;;18.70;7.00;;;33.00;25.80;;;;;;4996037;28;20451;-89
2021/07/03 06:32:40;;;;;;;10.40;7.40;;;31.80;26.70;;;;;;4996052;28;20829;-89
2021/07/03 06:35:08;;;;;;;25.03;8.30;;;31.90;26.30;;;;;;4995987;28;20842;-89
2021/07/03 06:37:36;;;;;;;11.50;7.30;;;31.30;26.00;;;;;;4996302;28;20447;-86
2021/07/03 06:40:03;;;;;;;17.73;8.30;;;31.00;27.60;;;;;;4996484;28;20513;-89
2021/07/03 06:42:30;;;;;;;10.33;6.80;;;30.90;27.00;;;;;;4995875;28;20470;-88
2021/07/03 06:44:57;;;;;;;12.90;7.67;;;30.90;27.00;;;;;;4996035;28;20502;-89
2021/07/03 06:47:25;;;;;;;16.47;7.80;;;31.90;27.10;;;;;;4996234;28;20451;-89
2021/07/03 06:49:52;;;;;;;10.70;7.00;;;32.70;25.80;;;;;;4995811;28;20945;-89
2021/07/03 06:52:19;;;;;;;11.27;7.17;;;33.30;25.00;;;;;;5003306;28;20451;-89
2021/07/03 06:54:46;;;;;;;13.03;7.13;;;33.50;25.20;;;;;;5010590;28;20443;-88
2021/07/03 06:57:13;;;;;;;17.13;8.37;;;33.80;23.50;;;;;;5009166;28;20447;-89
2021/07/03 06:59:40;;;;;;;11.10;7.70;;;33.10;24.70;;;;;;5008186;28;20483;-89
2021/07/03 07:02:08;;;;;;;12.57;7.00;;;32.50;25.50;;;;;;5006364;28;20469;-90
2021/07/03 07:04:41;;;;;;;14.45;7.00;;;32.30;25.20;;;;;;5023892;23;20450;-88
2021/07/03 07:07:08;;;;;;;10.83;7.40;;;31.80;25.90;;;;;;5012551;28;20481;-88
2021/07/03 07:09:35;;;;;;;10.43;7.20;;;31.40;25.90;;;;;;5025582;28;20557;-89
2021/07/03 07:12:02;;;;;;;10.60;6.97;;;30.90;26.40;;;;;;5034077;28;20475;-90
2021/07/03 07:14:29;;;;;;;15.30;8.30;;;30.70;26.80;;;;;;5034899;28;20433;-90
2021/07/03 07:16:56;;;;;;;19.63;7.00;;;31.90;26.50;;;;;;5004433;28;20436;-91
2021/07/03 07:19:22;;;;;;;8.93;6.53;;;31.00;26.20;;;;;;4995560;28;20440;-89
2021/07/03 07:21:51;;;;;;;9.13;6.93;;;30.70;27.10;;;;;;5003369;28;20470;-91
2021/07/03 07:24:18;;;;;;;13.97;7.53;;;31.30;25.70;;;;;;4992745;28;20452;-91
2021/07/03 07:26:46;;;;;;;11.57;7.17;;;31.30;26.20;;;;;;4982362;28;20956;-91
2021/07/03 07:29:13;;;;;;;9.30;7.40;;;31.90;26.00;;;;;;4980497;28;20479;-90
2021/07/03 07:31:45;;;;;;;14.33;6.90;;;32.40;24.90;;;;;;4983659;28;20820;-91
2021/07/03 07:37:33;;;;;;;13.60;7.40;;;32.90;25.00;;;;;;4986267;28;20784;-91
2021/07/03 07:43:10;;;;;;;16.83;7.30;;;33.40;24.50;;;;;;4985845;28;20443;-90
2021/07/03 07:45:38;;;;;;;10.23;7.17;;;34.00;24.00;;;;;;4985544;28;20463;-91
2021/07/03 07:48:05;;;;;;;10.93;7.13;;;34.70;22.60;;;;;;4986420;28;20503;-90
2021/07/03 07:50:32;;;;;;;13.43;7.50;;;34.50;23.10;;;;;;4982980;28;20436;-90
2021/07/03 07:53:00;;;;;;;13.27;6.70;;;34.40;22.90;;;;;;4982770;28;20530;-90
2021/07/03 07:55:27;;;;;;;9.47;6.70;;;34.50;22.50;;;;;;4984602;28;20472;-89
2021/07/03 07:57:54;;;;;;;7.87;6.40;;;34.60;22.50;;;;;;4989545;28;20514;-90
2021/07/03 08:00:22;;;;;;;13.87;7.50;;;34.60;21.80;;;;;;4986345;28;20451;-90
2021/07/03 08:02:50;;;;;;;12.90;7.10;;;34.60;22.90;;;;;;4970061;28;20445;-90
2021/07/03 08:05:17;;;;;;;9.63;7.23;;;35.00;22.30;;;;;;5004225;28;20521;-91
2021/07/03 08:07:44;;;;;;;10.30;7.00;;;35.10;22.30;;;;;;4987012;28;20456;-90
2021/07/03 08:10:13;;;;;;;10.03;6.50;;;35.50;21.90;;;;;;4988765;28;20518;-90
2021/07/03 08:12:41;;;;;;;11.67;7.33;;;35.50;21.00;;;;;;4983643;28;20465;-90
2021/07/03 08:15:09;;;;;;;11.13;6.70;;;34.70;22.10;;;;;;4985275;28;20983;-90
2021/07/03 08:17:42;;;;;;;12.30;7.20;;;35.30;22.40;;;;;;4988919;28;20448;-90
2021/07/03 08:20:11;;;;;;;12.50;7.07;;;35.20;21.80;;;;;;4987974;28;20444;-91
2021/07/03 08:22:38;;;;;;;18.30;8.10;;;35.10;22.60;;;;;;4993231;28;20432;-90
2021/07/03 08:25:12;;;;;;;10.57;7.10;;;35.90;21.20;;;;;;4986759;28;20479;-91
2021/07/03 08:27:40;;;;;;;9.10;6.73;;;35.90;21.20;;;;;;4989757;28;20498;-89
2021/07/03 08:30:08;;;;;;;46.13;8.00;;;36.20;21.30;;;;;;4985263;28;20537;-91
2021/07/03 08:32:35;;;;;;;11.47;6.80;;;35.70;21.30;;;;;;4983024;28;20483;-91
2021/07/03 08:35:03;;;;;;;8.97;6.43;;;35.70;21.10;;;;;;4984545;28;20472;-91
2021/07/03 08:37:30;;;;;;;9.40;6.13;;;35.10;22.70;;;;;;4989266;28;20483;-88
2021/07/03 08:39:57;;;;;;;9.40;6.73;;;36.20;21.30;;;;;;4982883;28;20538;-91
2021/07/03 08:42:24;;;;;;;9.73;6.20;;;35.40;21.50;;;;;;4963828;29;20881;-91
2021/07/03 08:44:52;;;;;;;8.00;6.10;;;35.30;21.40;;;;;;5007675;28;20514;-90
2021/07/03 08:47:20;;;;;;;10.80;7.10;;;35.70;21.10;;;;;;5003443;28;20435;-91
2021/07/03 08:49:55;;;;;;;11.63;6.70;;;35.60;20.90;;;;;;5005972;28;20477;-92
2021/07/03 08:52:23;;;;;;;9.03;6.20;;;34.90;21.90;;;;;;4970770;28;20436;-91
2021/07/03 08:55:03;;;;;;;16.27;6.33;;;34.50;22.20;;;;;;4962260;28;20619;-91
2021/07/03 08:57:31;;;;;;;9.87;6.50;;;34.60;21.50;;;;;;4963079;29;20471;-90
2021/07/03 09:00:00;;;;;;;9.13;6.10;;;34.70;21.70;;;;;;4962905;29;20437;-90
2021/07/03 09:02:34;;;;;;;8.37;5.53;;;35.20;20.80;;;;;;4961740;28;20544;-91
2021/07/03 09:05:01;;;;;;;8.47;6.70;;;34.60;22.70;;;;;;4965211;28;20469;-91
2021/07/03 09:07:34;;;;;;;7.70;5.77;;;34.50;21.80;;;;;;4983076;28;20444;-91
2021/07/03 09:10:02;;;;;;;16.60;6.40;;;34.60;22.20;;;;;;4983808;28;20472;-91
2021/07/03 09:15:23;;;;;;;9.90;5.83;;;35.20;20.80;;;;;;4986013;28;20573;-90
2021/07/03 09:17:52;;;;;;;10.30;6.37;;;34.50;21.40;;;;;;5007544;28;20446;-91
2021/07/03 09:20:28;;;;;;;9.63;7.00;;;33.90;22.00;;;;;;4996551;28;20455;-90
2021/07/03 09:23:10;;;;;;;8.07;5.97;;;33.40;22.30;;;;;;4989998;28;20430;-92
2021/07/03 09:25:38;;;;;;;9.17;5.90;;;33.20;22.60;;;;;;4994782;28;20487;-91
2021/07/03 09:28:08;;;;;;;8.33;6.33;;;32.80;22.70;;;;;;4980885;28;20510;-90
2021/07/03 09:31:16;;;;;;;8.30;6.13;;;32.50;22.50;;;;;;4990007;28;20453;-90
2021/07/03 09:33:47;;;;;;;7.67;5.80;;;31.60;22.80;;;;;;4985850;28;20471;-90
2021/07/03 09:36:15;;;;;;;11.30;7.37;;;31.40;23.60;;;;;;4982415;28;20518;-91
2021/07/03 09:38:44;;;;;;;10.33;5.67;;;31.40;24.50;;;;;;4982549;28;20448;-92
2021/07/03 09:41:13;;;;;;;7.03;5.23;;;31.20;25.40;;;;;;4985620;28;20499;-91
2021/07/03 09:43:55;;;;;;;17.30;5.90;;;31.30;24.30;;;;;;4985256;28;20448;-93
2021/07/03 09:46:24;;;;;;;6.30;5.13;;;30.60;25.50;;;;;;4987061;28;20479;-91
2021/07/03 09:48:53;;;;;;;9.90;6.40;;;30.80;26.40;;;;;;4994326;28;21026;-90
2021/07/03 09:51:26;;;;;;;9.20;5.90;;;30.80;25.40;;;;;;4998500;28;20459;-90
2021/07/03 09:53:54;;;;;;;9.87;5.93;;;30.90;25.70;;;;;;4998152;28;20435;-90
2021/07/03 09:56:21;;;;;;;8.57;5.63;;;30.50;24.90;;;;;;4982679;28;20472;-90
2021/07/03 09:58:48;;;;;;;8.63;6.23;;;30.40;25.50;;;;;;4979823;28;20451;-90
2021/07/03 10:01:15;;;;;;;8.63;5.87;;;30.80;24.60;;;;;;4979377;28;20533;-90
2021/07/03 10:03:44;;;;;;;8.90;5.60;;;31.00;24.70;;;;;;4980903;28;20448;-90
2021/07/03 10:06:16;;;;;;;8.87;5.90;;;30.90;24.70;;;;;;4980089;28;20530;-90
2021/07/03 10:08:46;;;;;;;11.37;5.10;;;30.40;26.00;;;;;;5009325;28;20490;-90
2021/07/03 10:11:18;;;;;;;10.80;5.63;;;30.10;24.70;;;;;;5002330;28;20440;-90
2021/07/03 10:13:47;;;;;;;7.70;5.13;;;30.00;25.20;;;;;;4993861;28;20459;-91
2021/07/03 10:16:21;;;;;;;11.70;5.90;;;30.10;25.60;;;;;;4997299;28;20470;-91
2021/07/03 10:18:50;;;;;;;9.00;5.83;;;30.00;25.30;;;;;;4999634;28;20435;-91
2021/07/03 10:21:21;;;;;;;7.30;5.23;;;30.30;24.60;;;;;;4997722;28;20529;-91
2021/07/03 10:23:48;;;;;;;10.10;5.67;;;29.80;24.00;;;;;;4997273;28;20511;-90
2021/07/03 10:26:15;;;;;;;12.53;5.23;;;29.70;24.00;;;;;;4978396;28;20456;-90
2021/07/03 10:28:49;;;;;;;5.40;4.80;;;29.30;24.10;;;;;;4995221;28;20510;-91
2021/07/03 10:31:17;;;;;;;8.00;5.73;;;29.60;24.00;;;;;;4996457;28;20466;-90
2021/07/03 10:33:47;;;;;;;7.10;5.80;;;29.80;24.60;;;;;;4977079;28;20484;-90
2021/07/03 10:36:26;;;;;;;9.97;5.70;;;30.10;24.30;;;;;;4995725;28;20516;-91
2021/07/03 10:38:54;;;;;;;6.97;5.30;;;30.30;24.30;;;;;;4960481;28;20429;-90
2021/07/03 10:41:23;;;;;;;11.10;5.40;;;30.30;24.80;;;;;;4996973;28;20463;-92
2021/07/03 10:43:52;;;;;;;11.87;5.20;;;30.60;24.50;;;;;;4994508;28;20509;-91
2021/07/03 10:46:31;;;;;;;8.20;5.13;;;30.80;24.60;;;;;;4976432;28;20762;-91
2021/07/03 10:49:00;;;;;;;7.50;5.30;;;30.40;24.40;;;;;;4977741;28;20566;-91
2021/07/03 10:51:37;;;;;;;8.50;5.23;;;30.40;24.60;;;;;;4980918;28;20511;-91
2021/07/03 10:54:18;;;;;;;8.70;5.60;;;30.40;23.50;;;;;;4997041;28;20463;-91
2021/07/03 10:56:48;;;;;;;7.50;5.07;;;30.60;24.20;;;;;;4992685;28;20471;-89
2021/07/03 10:59:16;;;;;;;11.40;5.77;;;30.90;23.70;;;;;;4976891;28;20448;-89
2021/07/03 11:01:44;;;;;;;14.20;5.80;;;30.40;23.60;;;;;;4980426;28;20440;-91
2021/07/03 11:04:19;;;;;;;17.87;5.57;;;29.70;24.50;;;;;;4985480;28;20481;-91
2021/07/03 11:06:49;;;;;;;6.20;5.00;;;30.30;24.90;;;;;;5003084;28;20840;-91
2021/07/03 11:09:28;;;;;;;6.43;4.93;;;30.90;23.70;;;;;;5001948;28;20549;-91
2021/07/03 11:11:57;;;;;;;8.70;5.57;;;30.40;24.40;;;;;;5002122;28;20446;-91
2021/07/03 11:14:24;;;;;;;6.47;4.83;;;30.30;24.30;;;;;;5004017;28;20469;-91
2021/07/03 11:16:53;;;;;;;6.17;4.60;;;30.50;24.20;;;;;;5003419;28;20996;-91
2021/07/03 11:19:24;;;;;;;6.00;4.90;;;30.70;24.00;;;;;;4980833;28;20793;-91
2021/07/03 11:22:05;;;;;;;7.87;5.13;;;30.40;23.80;;;;;;4980078;28;20472;-91
2021/07/03 11:24:43;;;;;;;7.70;5.33;;;30.10;24.20;;;;;;4989290;28;20454;-89
2021/07/03 11:27:10;;;;;;;6.43;4.77;;;29.90;25.00;;;;;;4990503;28;20483;-91
2021/07/03 11:29:37;;;;;;;6.90;4.73;;;29.60;24.40;;;;;;4979653;28;20586;-91
2021/07/03 11:32:06;;;;;;;14.20;5.63;;;29.90;24.10;;;;;;4988177;28;20439;-91
2021/07/03 11:34:34;;;;;;;5.90;4.93;;;30.10;23.70;;;;;;4989766;28;20468;-90
2021/07/03 11:37:03;;;;;;;5.73;4.53;;;30.10;23.80;;;;;;4980216;28;20490;-91
2021/07/03 11:39:31;;;;;;;8.73;5.00;;;30.20;23.80;;;;;;4979594;28;20495;-92
2021/07/03 11:42:03;;;;;;;7.90;5.40;;;29.80;25.30;;;;;;4989670;28;20455;-91
2021/07/03 11:44:30;;;;;;;6.90;5.10;;;29.80;24.90;;;;;;4988727;28;20824;-91
2021/07/03 11:46:57;;;;;;;10.83;5.33;;;30.20;24.00;;;;;;4989637;28;20474;-92
2021/07/03 11:49:24;;;;;;;10.23;5.33;;;30.50;23.80;;;;;;4998882;28;20569;-92
2021/07/03 11:52:03;;;;;;;12.77;5.70;;;30.40;23.80;;;;;;4989213;28;20530;-91
2021/07/03 11:54:30;;;;;;;6.97;5.07;;;30.60;24.00;;;;;;4979205;28;20468;-91
2021/07/03 11:56:59;;;;;;;7.80;5.20;;;30.70;23.40;;;;;;4989827;28;20469;-91
2021/07/03 11:59:27;;;;;;;6.40;4.57;;;30.60;24.20;;;;;;4986867;28;20447;-91
2021/07/03 12:01:54;;;;;;;6.67;4.60;;;31.00;24.60;;;;;;4980400;28;20483;-92
2021/07/03 12:04:22;;;;;;;6.30;5.20;;;30.80;23.70;;;;;;4979527;28;20514;-91
2021/07/03 12:06:59;;;;;;;5.90;4.50;;;30.80;22.90;;;;;;4988700;28;20478;-92
2021/07/03 12:09:35;;;;;;;6.30;4.33;;;30.80;25.00;;;;;;4987178;28;20562;-92
2021/07/03 12:12:02;;;;;;;8.17;5.10;;;30.80;23.90;;;;;;4993189;28;20486;-92
2021/07/03 12:14:29;;;;;;;10.60;5.10;;;31.10;22.70;;;;;;4998540;28;20458;-92
2021/07/03 12:16:58;;;;;;;7.10;4.30;;;31.00;23.20;;;;;;4997531;28;20470;-91
2021/07/03 12:19:25;;;;;;;10.67;4.83;;;30.70;23.30;;;;;;4998421;28;20447;-92
2021/07/03 12:21:52;;;;;;;5.40;4.53;;;30.90;23.10;;;;;;4984692;28;20444;-92
2021/07/03 12:24:27;;;;;;;9.27;5.10;;;31.00;23.50;;;;;;4991428;28;20475;-92
2021/07/03 12:26:56;;;;;;;5.80;4.80;;;30.50;22.70;;;;;;4986013;28;20483;-92
2021/07/03 12:29:30;;;;;;;10.50;4.90;;;30.40;23.40;;;;;;4979645;28;20515;-91
2021/07/03 12:32:07;;;;;;;9.17;5.70;;;29.80;23.80;;;;;;4977856;28;20987;-92
2021/07/03 12:34:37;;;;;;;6.33;4.60;;;29.30;24.70;;;;;;4977192;28;20456;-91
2021/07/03 12:37:06;;;;;;;6.30;5.10;;;29.50;24.10;;;;;;4978601;28;20444;-92
2021/07/03 12:39:34;;;;;;;7.87;4.33;;;29.90;23.50;;;;;;4979485;28;20807;-92
2021/07/03 12:42:05;;;;;;;5.80;4.53;;;29.90;23.70;;;;;;4996162;28;20528;-91
2021/07/03 12:44:32;;;;;;;6.37;4.70;;;30.10;23.60;;;;;;5018175;28;21368;-90
2021/07/03 12:47:00;;;;;;;10.73;4.80;;;30.70;23.10;;;;;;5004436;28;20471;-91
2021/07/03 12:49:33;;;;;;;6.07;4.53;;;30.40;23.10;;;;;;5011727;28;20492;-90
2021/07/03 12:52:00;;;;;;;14.63;4.90;;;29.90;23.00;;;;;;5017194;28;20431;-91
2021/07/03 12:54:27;;;;;;;7.90;4.60;;;29.60;24.00;;;;;;5001155;28;20471;-91